sensor_id;sensor_type;location;lat;lon;timestamp;P1;P4;P2;P0;N10;N4;N25;N1;N05;TS
66018;SPS30;52787;51.084;5.816;2023-11-19T00:00:27;1.49;1.49;1.49;1.41;11.27;11.26;11.26;11.25;10.00;0.39
66018;SPS30;52787;51.084;5.816;2023-11-19T00:02:53;1.68;1.68;1.68;1.59;12.67;12.67;12.67;12.65;11.25;0.39
66018;SPS30;52787;51.084;5.816;2023-11-19T00:05:19;4.60;4.60;4.60;4.35;34.73;34.73;34.72;34.67;30.83;0.41
66018;SPS30;52787;51.084;5.816;2023-11-19T00:07:45;12.71;12.62;12.45;11.58;92.48;92.45;92.40;92.06;81.49;0.51
66018;SPS30;52787;51.084;5.816;2023-11-19T00:10:12;6.51;6.44;6.31;5.82;46.45;46.44;46.40;46.18;40.78;0.52
66018;SPS30;52787;51.084;5.816;2023-11-19T00:12:44;2.74;2.74;2.73;2.57;20.49;20.49;20.48;20.44;18.15;0.47
66018;SPS30;52787;51.084;5.816;2023-11-19T00:15:13;2.60;2.60;2.60;2.46;19.65;19.65;19.64;19.62;17.44;0.43
66018;SPS30;52787;51.084;5.816;2023-11-19T00:17:40;2.34;2.34;2.34;2.21;17.68;17.68;17.67;17.65;15.69;0.42
66018;SPS30;52787;51.084;5.816;2023-11-19T00:20:14;1.48;1.48;1.48;1.40;11.21;11.21;11.21;11.19;9.95;0.42
66018;SPS30;52787;51.084;5.816;2023-11-19T00:22:41;1.30;1.30;1.30;1.23;9.78;9.78;9.78;9.76;8.68;0.41
66018;SPS30;52787;51.084;5.816;2023-11-19T00:25:08;1.13;1.13;1.13;1.07;8.52;8.52;8.52;8.51;7.56;0.41
66018;SPS30;52787;51.084;5.816;2023-11-19T00:27:35;1.22;1.22;1.22;1.16;9.23;9.23;9.23;9.21;8.19;0.42
66018;SPS30;52787;51.084;5.816;2023-11-19T00:30:03;1.09;1.09;1.09;1.03;8.25;8.25;8.25;8.24;7.32;0.42
66018;SPS30;52787;51.084;5.816;2023-11-19T00:32:33;0.98;0.98;0.98;0.93;7.40;7.40;7.40;7.39;6.57;0.41
66018;SPS30;52787;51.084;5.816;2023-11-19T00:34:59;1.07;1.07;1.07;1.01;8.09;8.09;8.09;8.08;7.18;0.41
66018;SPS30;52787;51.084;5.816;2023-11-19T00:37:25;0.99;0.99;0.99;0.94;7.47;7.47;7.47;7.46;6.63;0.41
66018;SPS30;52787;51.084;5.816;2023-11-19T00:39:51;1.03;1.03;1.03;0.98;7.79;7.79;7.79;7.78;6.92;0.40
66018;SPS30;52787;51.084;5.816;2023-11-19T00:42:17;0.88;0.88;0.88;0.83;6.65;6.65;6.65;6.64;5.90;0.40
66018;SPS30;52787;51.084;5.816;2023-11-19T00:44:43;0.93;0.93;0.93;0.88;7.02;7.01;7.01;7.00;6.23;0.41
66018;SPS30;52787;51.084;5.816;2023-11-19T00:47:17;1.16;1.16;1.16;1.09;8.73;8.73;8.73;8.72;7.75;0.41
66018;SPS30;52787;51.084;5.816;2023-11-19T00:49:46;1.20;1.20;1.20;1.14;9.08;9.08;9.08;9.07;8.06;0.43
66018;SPS30;52787;51.084;5.816;2023-11-19T00:52:16;1.07;1.07;1.07;1.02;8.12;8.11;8.11;8.10;7.20;0.43
66018;SPS30;52787;51.084;5.816;2023-11-19T00:54:42;0.94;0.94;0.94;0.88;7.06;7.06;7.06;7.05;6.27;0.42
66018;SPS30;52787;51.084;5.816;2023-11-19T00:57:08;0.99;0.99;0.99;0.94;7.49;7.49;7.49;7.48;6.65;0.42
66018;SPS30;52787;51.084;5.816;2023-11-19T00:59:34;0.89;0.89;0.89;0.84;6.73;6.73;6.73;6.72;5.97;0.41
66018;SPS30;52787;51.084;5.816;2023-11-19T01:02:00;1.04;1.04;1.04;0.98;7.84;7.84;7.84;7.83;6.96;0.42
66018;SPS30;52787;51.084;5.816;2023-11-19T01:04:34;1.03;1.03;1.03;0.97;7.74;7.74;7.74;7.73;6.87;0.41
66018;SPS30;52787;51.084;5.816;2023-11-19T01:07:01;0.87;0.87;0.87;0.82;6.58;6.58;6.58;6.57;5.84;0.42
66018;SPS30;52787;51.084;5.816;2023-11-19T01:09:31;1.30;1.30;1.30;1.23;9.81;9.81;9.81;9.79;8.71;0.43
66018;SPS30;52787;51.084;5.816;2023-11-19T01:11:59;1.16;1.16;1.16;1.10;8.77;8.77;8.77;8.76;7.79;0.42
66018;SPS30;52787;51.084;5.816;2023-11-19T01:14:27;1.31;1.31;1.31;1.24;9.87;9.87;9.87;9.86;8.76;0.43
66018;SPS30;52787;51.084;5.816;2023-11-19T01:16:53;1.46;1.46;1.46;1.38;11.04;11.04;11.04;11.02;9.80;0.42
66018;SPS30;52787;51.084;5.816;2023-11-19T01:19:19;1.63;1.63;1.63;1.54;12.29;12.29;12.29;12.27;10.91;0.42
66018;SPS30;52787;51.084;5.816;2023-11-19T01:21:47;1.58;1.58;1.58;1.50;11.97;11.96;11.96;11.94;10.62;0.42
66018;SPS30;52787;51.084;5.816;2023-11-19T01:24:14;1.41;1.41;1.41;1.34;10.67;10.67;10.67;10.65;9.47;0.43
66018;SPS30;52787;51.084;5.816;2023-11-19T01:26:41;1.80;1.80;1.79;1.68;13.42;13.42;13.41;13.39;11.88;0.44
66018;SPS30;52787;51.084;5.816;2023-11-19T01:29:13;2.11;2.09;2.04;1.87;14.94;14.93;14.92;14.84;13.09;0.46
66018;SPS30;52787;51.084;5.816;2023-11-19T01:31:43;2.43;2.39;2.31;2.09;16.72;16.72;16.70;16.58;14.57;0.48
66018;SPS30;52787;51.084;5.816;2023-11-19T01:34:16;2.38;2.33;2.23;2.00;16.01;16.01;15.98;15.84;13.88;0.50
66018;SPS30;52787;51.084;5.816;2023-11-19T01:36:42;2.34;2.29;2.19;1.96;15.64;15.64;15.61;15.47;13.54;0.51
66018;SPS30;52787;51.084;5.816;2023-11-19T01:39:07;2.49;2.43;2.32;2.06;16.46;16.45;16.42;16.26;14.22;0.51
66018;SPS30;52787;51.084;5.816;2023-11-19T01:41:34;2.48;2.40;2.26;1.98;15.80;15.79;15.76;15.57;13.54;0.52
66018;SPS30;52787;51.084;5.816;2023-11-19T01:44:06;2.18;2.11;1.97;1.70;13.60;13.59;13.55;13.37;11.59;0.53
66018;SPS30;52787;51.084;5.816;2023-11-19T01:46:32;2.38;2.30;2.16;1.87;14.92;14.92;14.88;14.68;12.73;0.52
66018;SPS30;52787;51.084;5.816;2023-11-19T01:48:58;2.67;2.59;2.44;2.14;17.08;17.07;17.03;16.82;14.63;0.52
66018;SPS30;52787;51.084;5.816;2023-11-19T01:51:25;2.81;2.73;2.58;2.27;18.13;18.13;18.09;17.88;15.58;0.51
66018;SPS30;52787;51.084;5.816;2023-11-19T01:53:52;2.97;2.87;2.67;2.30;18.38;18.37;18.33;18.06;15.64;0.52
66018;SPS30;52787;51.084;5.816;2023-11-19T01:56:18;2.82;2.71;2.50;2.12;16.93;16.92;16.87;16.59;14.30;0.53
66018;SPS30;52787;51.084;5.816;2023-11-19T01:58:47;3.01;2.90;2.69;2.30;18.42;18.41;18.36;18.07;15.62;0.52
66018;SPS30;52787;51.084;5.816;2023-11-19T02:01:15;3.00;2.90;2.71;2.35;18.74;18.73;18.69;18.43;15.98;0.51
66018;SPS30;52787;51.084;5.816;2023-11-19T02:03:41;3.10;2.98;2.75;2.33;18.66;18.65;18.59;18.28;15.76;0.51
66018;SPS30;52787;51.084;5.816;2023-11-19T02:06:08;3.12;3.01;2.79;2.39;19.11;19.10;19.05;18.76;16.21;0.50
66018;SPS30;52787;51.084;5.816;2023-11-19T02:08:35;3.17;3.06;2.83;2.42;19.36;19.35;19.30;19.00;16.41;0.52
66018;SPS30;52787;51.084;5.816;2023-11-19T02:11:02;3.30;3.18;2.94;2.51;20.06;20.04;19.99;19.67;16.99;0.51
66018;SPS30;52787;51.084;5.816;2023-11-19T02:13:28;3.48;3.35;3.09;2.62;20.98;20.97;20.91;20.56;17.73;0.52
66018;SPS30;52787;51.084;5.816;2023-11-19T02:15:54;3.95;3.76;3.41;2.81;22.49;22.47;22.39;21.92;18.73;0.55
66018;SPS30;52787;51.084;5.816;2023-11-19T02:18:25;3.62;3.43;3.07;2.50;19.97;19.95;19.86;19.40;16.49;0.56
66018;SPS30;52787;51.084;5.816;2023-11-19T02:20:59;3.34;3.18;2.86;2.34;18.75;18.73;18.66;18.24;15.55;0.56
66018;SPS30;52787;51.084;5.816;2023-11-19T02:23:26;2.84;2.71;2.44;2.01;16.08;16.07;16.01;15.67;13.37;0.57
66018;SPS30;52787;51.084;5.816;2023-11-19T02:26:00;3.30;3.14;2.82;2.31;18.45;18.43;18.36;17.94;15.28;0.58
66018;SPS30;52787;51.084;5.816;2023-11-19T02:28:42;3.64;3.43;3.04;2.42;19.38;19.36;19.27;18.76;15.84;0.58
66018;SPS30;52787;51.084;5.816;2023-11-19T02:31:09;3.44;3.25;2.86;2.27;18.15;18.13;18.04;17.55;14.79;0.58
66018;SPS30;52787;51.084;5.816;2023-11-19T02:33:39;3.91;3.68;3.25;2.57;20.60;20.58;20.48;19.92;16.79;0.58
66018;SPS30;52787;51.084;5.816;2023-11-19T02:36:05;3.47;3.26;2.85;2.23;17.81;17.79;17.70;17.17;14.40;0.58
66018;SPS30;52787;51.084;5.816;2023-11-19T02:38:33;3.91;3.65;3.14;2.39;19.13;19.10;18.99;18.34;15.23;0.60
66018;SPS30;52787;51.084;5.816;2023-11-19T02:41:04;4.28;3.99;3.42;2.59;20.69;20.66;20.53;19.81;16.41;0.61
66018;SPS30;52787;51.084;5.816;2023-11-19T02:43:31;4.33;4.02;3.41;2.54;20.35;20.33;20.19;19.43;15.99;0.63
66018;SPS30;52787;51.084;5.816;2023-11-19T02:46:01;4.03;3.75;3.19;2.38;19.06;19.03;18.91;18.20;15.01;0.63
66018;SPS30;52787;51.084;5.816;2023-11-19T02:48:32;4.48;4.15;3.51;2.59;20.70;20.67;20.53;19.72;16.17;0.64
66018;SPS30;52787;51.084;5.816;2023-11-19T02:51:00;4.99;4.59;3.79;2.68;21.48;21.44;21.26;20.26;16.33;0.67
66018;SPS30;52787;51.084;5.816;2023-11-19T02:53:29;5.30;4.82;3.89;2.61;20.91;20.87;20.66;19.49;15.34;0.70
66018;SPS30;52787;51.084;5.816;2023-11-19T02:55:55;5.27;4.78;3.81;2.50;20.09;20.04;19.83;18.62;14.51;0.72
66018;SPS30;52787;51.084;5.816;2023-11-19T02:58:27;5.46;4.92;3.86;2.45;19.69;19.64;19.41;18.10;13.86;0.74
66018;SPS30;52787;51.084;5.816;2023-11-19T03:00:54;7.12;6.41;5.03;3.19;25.58;25.52;25.21;23.49;17.96;0.74
66018;SPS30;52787;51.084;5.816;2023-11-19T03:03:26;7.26;6.47;4.93;2.90;23.28;23.22;22.87;20.96;15.36;0.79
66018;SPS30;52787;51.084;5.816;2023-11-19T03:06:06;8.00;7.09;5.32;3.00;24.14;24.06;23.67;21.47;15.33;0.81
66018;SPS30;52787;51.084;5.816;2023-11-19T03:08:35;7.64;6.78;5.09;2.89;23.23;23.16;22.79;20.70;14.83;0.81
66018;SPS30;52787;51.084;5.816;2023-11-19T03:11:01;7.85;6.91;5.07;2.70;21.70;21.62;21.21;18.94;12.94;0.85
66018;SPS30;52787;51.084;5.816;2023-11-19T03:13:27;8.29;7.30;5.37;2.87;23.08;23.00;22.57;20.18;13.85;0.85
66018;SPS30;52787;51.084;5.816;2023-11-19T03:15:53;8.43;7.43;5.46;2.93;23.53;23.45;23.02;20.59;14.14;0.85
66018;SPS30;52787;51.084;5.816;2023-11-19T03:18:19;8.08;7.09;5.16;2.68;21.57;21.49;21.06;18.67;12.51;0.87
66018;SPS30;52787;51.084;5.816;2023-11-19T03:20:46;8.24;7.25;5.33;2.86;22.98;22.90;22.47;20.10;13.81;0.86
66018;SPS30;52787;51.084;5.816;2023-11-19T03:23:12;7.73;6.82;5.04;2.74;22.05;21.98;21.59;19.38;13.47;0.84
66018;SPS30;52787;51.084;5.816;2023-11-19T03:25:38;6.88;6.10;4.57;2.58;20.72;20.65;20.31;18.42;13.14;0.79
66018;SPS30;52787;51.084;5.816;2023-11-19T03:28:03;5.61;4.99;3.79;2.21;17.77;17.72;17.46;15.96;11.65;0.78
66018;SPS30;52787;51.084;5.816;2023-11-19T03:30:30;5.61;5.02;3.85;2.32;18.62;18.57;18.31;16.87;12.53;0.76
66018;SPS30;52787;51.084;5.816;2023-11-19T03:32:56;6.88;6.14;4.69;2.78;22.31;22.25;21.93;20.13;14.83;0.78
66018;SPS30;52787;51.084;5.816;2023-11-19T03:35:23;6.89;6.15;4.71;2.82;22.62;22.56;22.24;20.45;15.14;0.78
66018;SPS30;52787;51.084;5.816;2023-11-19T03:37:50;6.32;5.63;4.28;2.50;20.09;20.03;19.73;18.05;13.18;0.81
66018;SPS30;52787;51.084;5.816;2023-11-19T03:40:17;7.11;6.35;4.86;2.89;23.22;23.16;22.82;20.97;15.48;0.80
66018;SPS30;52787;51.084;5.816;2023-11-19T03:42:44;6.76;6.01;4.55;2.65;21.25;21.19;20.87;19.06;13.86;0.80
66018;SPS30;52787;51.084;5.816;2023-11-19T03:45:11;5.91;5.31;4.12;2.55;20.49;20.44;20.18;18.71;14.13;0.76
66018;SPS30;52787;51.084;5.816;2023-11-19T03:47:37;6.37;5.72;4.44;2.74;22.01;21.95;21.67;20.08;15.15;0.77
66018;SPS30;52787;51.084;5.816;2023-11-19T03:50:04;6.24;5.60;4.36;2.71;21.78;21.73;21.45;19.91;15.07;0.76
66018;SPS30;52787;51.084;5.816;2023-11-19T03:52:31;5.63;5.09;4.03;2.60;20.85;20.81;20.57;19.25;14.87;0.74
66018;SPS30;52787;51.084;5.816;2023-11-19T03:54:56;6.38;5.71;4.40;2.66;21.37;21.31;21.02;19.39;14.46;0.78
66018;SPS30;52787;51.084;5.816;2023-11-19T03:57:23;7.68;6.82;5.15;2.96;23.78;23.71;23.34;21.26;15.36;0.81
66018;SPS30;52787;51.084;5.816;2023-11-19T03:59:49;7.39;6.54;4.89;2.74;21.99;21.92;21.55;19.51;13.84;0.83
66018;SPS30;52787;51.084;5.816;2023-11-19T04:02:15;7.11;6.32;4.79;2.78;22.36;22.30;21.96;20.06;14.58;0.80
66018;SPS30;52787;51.084;5.816;2023-11-19T04:04:42;8.24;7.30;5.47;3.08;24.77;24.69;24.28;22.01;15.69;0.82
66018;SPS30;52787;51.084;5.816;2023-11-19T04:07:08;8.29;7.34;5.49;3.08;24.76;24.68;24.27;21.98;15.62;0.84
66018;SPS30;52787;51.084;5.816;2023-11-19T04:09:34;8.36;7.40;5.52;3.08;24.79;24.71;24.30;21.97;15.56;0.84
66018;SPS30;52787;51.084;5.816;2023-11-19T04:12:00;8.27;7.31;5.44;3.00;24.13;24.05;23.63;21.31;14.97;0.83
66018;SPS30;52787;51.084;5.816;2023-11-19T04:14:26;8.38;7.37;5.41;2.88;23.19;23.11;22.67;20.25;13.85;0.87
66018;SPS30;52787;51.084;5.816;2023-11-19T04:16:52;9.60;8.46;6.22;3.33;26.77;26.68;26.18;23.41;16.07;0.85
66018;SPS30;52787;51.084;5.816;2023-11-19T04:19:19;7.97;7.05;5.27;2.95;23.69;23.61;23.22;21.01;14.90;0.83
66018;SPS30;52787;51.084;5.816;2023-11-19T04:21:45;7.54;6.68;5.00;2.82;22.65;22.58;22.21;20.13;14.35;0.84
66018;SPS30;52787;51.084;5.816;2023-11-19T04:24:11;8.99;7.92;5.83;3.14;25.26;25.18;24.71;22.14;15.27;0.87
66018;SPS30;52787;51.084;5.816;2023-11-19T04:29:13;9.64;8.46;6.15;3.18;25.56;25.46;24.95;22.09;14.74;0.90
66018;SPS30;52787;51.084;5.816;2023-11-19T04:31:42;9.01;7.89;5.70;2.90;23.33;23.24;22.75;20.05;13.19;0.90
66018;SPS30;52787;51.084;5.816;2023-11-19T04:34:09;7.60;6.71;4.95;2.68;21.59;21.52;21.13;18.96;13.14;0.85
66018;SPS30;52787;51.084;5.816;2023-11-19T04:36:36;8.40;7.38;5.38;2.81;22.63;22.55;22.10;19.63;13.22;0.88
66018;SPS30;52787;51.084;5.816;2023-11-19T04:39:02;7.80;6.86;5.02;2.65;21.33;21.25;20.84;18.57;12.61;0.86
66018;SPS30;52787;51.084;5.816;2023-11-19T04:41:45;7.62;6.72;4.95;2.67;21.48;21.41;21.02;18.83;13.00;0.85
66018;SPS30;52787;51.084;5.816;2023-11-19T04:44:15;8.07;7.12;5.26;2.86;22.96;22.88;22.47;20.17;14.00;0.83
66018;SPS30;52787;51.084;5.816;2023-11-19T04:46:42;6.55;5.80;4.32;2.39;19.23;19.17;18.84;17.01;11.99;0.83
66018;SPS30;52787;51.084;5.816;2023-11-19T04:49:11;7.99;7.04;5.18;2.79;22.41;22.34;21.92;19.63;13.52;0.86
66018;SPS30;52787;51.084;5.816;2023-11-19T04:51:41;8.04;7.10;5.26;2.88;23.18;23.11;22.70;20.42;14.27;0.84
66018;SPS30;52787;51.084;5.816;2023-11-19T04:54:12;7.29;6.45;4.82;2.69;21.63;21.56;21.20;19.18;13.59;0.83
66018;SPS30;52787;51.084;5.816;2023-11-19T04:56:38;7.63;6.77;5.08;2.87;23.10;23.03;22.66;20.56;14.70;0.82
66018;SPS30;52787;51.084;5.816;2023-11-19T04:59:05;8.87;7.86;5.88;3.30;26.53;26.44;26.00;23.55;16.74;0.85
66018;SPS30;52787;51.084;5.816;2023-11-19T05:01:32;7.28;6.43;4.76;2.61;20.95;20.88;20.51;18.45;12.87;0.87
66018;SPS30;52787;51.084;5.816;2023-11-19T05:03:58;8.48;7.50;5.56;3.06;24.59;24.51;24.08;21.69;15.19;0.86
66018;SPS30;52787;51.084;5.816;2023-11-19T05:06:28;10.23;9.00;6.62;3.54;28.47;28.37;27.84;24.89;17.07;0.87
66018;SPS30;52787;51.084;5.816;2023-11-19T05:08:56;8.58;7.54;5.51;2.89;23.29;23.21;22.76;20.25;13.70;0.86
66018;SPS30;52787;51.084;5.816;2023-11-19T05:11:29;8.34;7.33;5.36;2.82;22.71;22.63;22.19;19.75;13.39;0.85
66018;SPS30;52787;51.084;5.816;2023-11-19T05:13:56;7.77;6.84;5.02;2.68;21.54;21.46;21.06;18.81;12.88;0.85
66018;SPS30;52787;51.084;5.816;2023-11-19T05:16:22;6.73;5.95;4.41;2.42;19.46;19.39;19.05;17.15;12.00;0.84
66018;SPS30;52787;51.084;5.816;2023-11-19T05:18:47;7.27;6.44;4.82;2.71;21.81;21.75;21.39;19.38;13.81;0.83
66018;SPS30;52787;51.084;5.816;2023-11-19T05:21:13;7.76;6.88;5.16;2.92;23.44;23.37;22.99;20.86;14.90;0.83
66018;SPS30;52787;51.084;5.816;2023-11-19T05:23:39;8.63;7.61;5.62;3.04;24.48;24.40;23.95;21.49;14.89;0.86
66018;SPS30;52787;51.084;5.816;2023-11-19T05:26:07;9.32;8.16;5.91;3.02;24.28;24.19;23.69;20.91;13.81;0.89
66018;SPS30;52787;51.084;5.816;2023-11-19T05:28:32;10.19;8.91;6.42;3.23;26.00;25.90;25.34;22.27;14.51;0.91
66018;SPS30;52787;51.084;5.816;2023-11-19T05:30:58;9.74;8.52;6.14;3.09;24.88;24.78;24.26;21.31;13.90;0.90
66018;SPS30;52787;51.084;5.816;2023-11-19T05:33:24;10.70;9.38;6.82;3.52;28.33;28.23;27.66;24.49;16.34;0.89
66018;SPS30;52787;51.084;5.816;2023-11-19T05:35:50;10.80;9.43;6.74;3.31;26.63;26.52;25.93;22.61;14.40;0.93
66018;SPS30;52787;51.084;5.816;2023-11-19T05:38:15;10.71;9.38;6.79;3.46;27.87;27.77;27.19;23.99;15.83;0.90
66018;SPS30;52787;51.084;5.816;2023-11-19T05:40:41;11.86;10.41;7.58;3.93;31.65;31.53;30.90;27.40;18.35;0.89
66018;SPS30;52787;51.084;5.816;2023-11-19T05:43:09;10.53;9.22;6.67;3.40;27.36;27.25;26.68;23.53;15.52;0.90
66018;SPS30;52787;51.084;5.816;2023-11-19T05:45:34;12.98;11.35;8.17;4.09;32.94;32.81;32.10;28.17;18.30;0.91
66018;SPS30;52787;51.084;5.816;2023-11-19T05:48:00;10.82;9.49;6.90;3.58;28.80;28.69;28.12;24.92;16.68;0.87
66018;SPS30;52787;51.084;5.816;2023-11-19T05:50:26;11.87;10.42;7.58;3.94;31.68;31.57;30.94;27.43;18.38;0.87
66018;SPS30;52787;51.084;5.816;2023-11-19T05:52:51;12.56;11.24;8.66;5.26;42.19;42.08;41.51;38.31;28.60;0.75
66018;SPS30;52787;51.084;5.816;2023-11-19T05:55:18;10.31;9.30;7.31;4.66;37.37;37.28;36.84;34.37;26.36;0.74
66018;SPS30;52787;51.084;5.816;2023-11-19T05:57:44;10.35;9.34;7.36;4.71;37.77;37.68;37.24;34.78;26.73;0.74
66018;SPS30;52787;51.084;5.816;2023-11-19T06:00:10;11.70;10.82;9.12;6.67;53.44;53.37;52.98;50.82;41.57;0.63
66018;SPS30;52787;51.084;5.816;2023-11-19T06:02:38;7.21;6.65;5.55;4.00;32.06;32.02;31.77;30.39;24.70;0.67
66018;SPS30;52787;51.084;5.816;2023-11-19T06:05:04;8.82;7.93;6.20;3.89;31.23;31.16;30.78;28.62;21.78;0.77
66018;SPS30;52787;51.084;5.816;2023-11-19T06:07:34;10.83;9.62;7.25;4.15;33.34;33.24;32.71;29.77;21.45;0.82
66018;SPS30;52787;51.084;5.816;2023-11-19T06:10:02;11.12;9.85;7.37;4.14;33.25;33.15;32.60;29.52;20.99;0.83
66018;SPS30;52787;51.084;5.816;2023-11-19T06:12:31;10.62;9.42;7.08;4.03;32.40;32.30;31.78;28.88;20.72;0.81
66018;SPS30;52787;51.084;5.816;2023-11-19T06:14:59;10.84;9.64;7.31;4.25;34.17;34.07;33.55;30.66;22.31;0.80
66018;SPS30;52787;51.084;5.816;2023-11-19T06:17:25;10.69;9.55;7.33;4.39;35.27;35.18;34.68;31.92;23.66;0.79
66018;SPS30;52787;51.084;5.816;2023-11-19T06:19:51;10.04;8.93;6.75;3.91;31.41;31.32;30.84;28.15;20.42;0.82
66018;SPS30;52787;51.084;5.816;2023-11-19T06:22:17;10.98;9.66;7.08;3.75;30.18;30.08;29.51;26.32;17.93;0.87
66018;SPS30;52787;51.084;5.816;2023-11-19T06:24:43;11.79;10.35;7.53;3.91;31.49;31.37;30.75;27.27;18.28;0.87
66018;SPS30;52787;51.084;5.816;2023-11-19T06:27:08;11.85;10.43;7.65;4.07;32.72;32.60;31.99;28.55;19.50;0.87
66018;SPS30;52787;51.084;5.816;2023-11-19T06:29:34;12.30;10.80;7.85;4.07;32.72;32.60;31.95;28.31;18.93;0.89
66018;SPS30;52787;51.084;5.816;2023-11-19T06:32:00;13.70;12.03;8.76;4.56;36.67;36.53;35.81;31.77;21.32;0.89
66018;SPS30;52787;51.084;5.816;2023-11-19T06:34:26;12.14;10.68;7.84;4.18;33.64;33.52;32.89;29.38;20.11;0.85
66018;SPS30;52787;51.084;5.816;2023-11-19T06:36:51;15.09;13.44;10.21;5.98;48.02;47.88;47.16;43.16;31.54;0.79
66018;SPS30;52787;51.084;5.816;2023-11-19T06:39:18;11.72;10.50;8.12;4.96;39.84;39.74;39.21;36.25;27.18;0.77
66018;SPS30;52787;51.084;5.816;2023-11-19T06:41:48;11.49;10.32;8.03;4.98;39.97;39.88;39.37;36.52;27.62;0.77
66018;SPS30;52787;51.084;5.816;2023-11-19T06:44:14;10.84;9.69;7.44;4.48;35.94;35.84;35.34;32.55;24.18;0.80
66018;SPS30;52787;51.084;5.816;2023-11-19T06:46:40;13.18;11.66;8.70;4.86;39.05;38.93;38.27;34.61;24.50;0.84
66018;SPS30;52787;51.084;5.816;2023-11-19T06:49:05;12.86;11.36;8.43;4.63;37.24;37.12;36.47;32.84;22.99;0.84
66018;SPS30;52787;51.084;5.816;2023-11-19T06:51:33;13.77;12.13;8.92;4.79;38.50;38.36;37.65;33.69;23.17;0.85
66018;SPS30;52787;51.084;5.816;2023-11-19T06:53:59;12.55;11.07;8.18;4.44;35.71;35.59;34.95;31.38;21.78;0.85
66018;SPS30;52787;51.084;5.816;2023-11-19T06:56:25;11.64;10.28;7.62;4.17;33.55;33.44;32.85;29.56;20.64;0.85
66018;SPS30;52787;51.084;5.816;2023-11-19T06:58:51;11.70;10.34;7.66;4.20;33.77;33.66;33.07;29.76;20.80;0.85
66018;SPS30;52787;51.084;5.816;2023-11-19T07:01:17;12.13;10.66;7.80;4.12;33.13;33.02;32.38;28.85;19.59;0.89
66018;SPS30;52787;51.084;5.816;2023-11-19T07:03:44;12.03;10.57;7.70;4.02;32.39;32.27;31.63;28.10;18.92;0.90
66018;SPS30;52787;51.084;5.816;2023-11-19T07:06:12;11.30;9.97;7.37;4.01;32.22;32.11;31.54;28.32;19.68;0.85
66018;SPS30;52787;51.084;5.816;2023-11-19T07:08:39;11.44;10.13;7.58;4.26;34.21;34.10;33.54;30.37;21.59;0.82
66018;SPS30;52787;51.084;5.816;2023-11-19T07:11:07;9.55;8.45;6.30;3.50;28.15;28.06;27.58;24.92;17.60;0.83
66018;SPS30;52787;51.084;5.816;2023-11-19T07:13:35;11.57;10.22;7.58;4.15;33.40;33.29;32.70;29.43;20.57;0.85
66018;SPS30;52787;51.084;5.816;2023-11-19T07:16:01;12.02;10.55;7.68;3.99;32.11;31.99;31.36;27.81;18.64;0.89
66018;SPS30;52787;51.084;5.816;2023-11-19T07:18:27;11.80;10.35;7.51;3.86;31.05;30.93;30.30;26.79;17.80;0.90
66018;SPS30;52787;51.084;5.816;2023-11-19T07:20:52;11.43;10.07;7.41;3.97;31.94;31.83;31.24;27.95;19.21;0.87
66018;SPS30;52787;51.084;5.816;2023-11-19T07:23:19;10.75;9.55;7.21;4.15;33.36;33.26;32.74;29.84;21.58;0.81
66018;SPS30;52787;51.084;5.816;2023-11-19T07:25:46;10.40;9.24;6.97;4.00;32.14;32.05;31.54;28.73;20.74;0.82
66018;SPS30;52787;51.084;5.816;2023-11-19T07:28:12;9.61;8.52;6.40;3.64;29.22;29.13;28.66;26.03;18.65;0.83
66018;SPS30;52787;51.084;5.816;2023-11-19T07:30:39;9.98;8.79;6.47;3.48;28.01;27.92;27.41;24.54;16.91;0.86
66018;SPS30;52787;51.084;5.816;2023-11-19T07:33:05;11.11;9.76;7.13;3.75;30.15;30.04;29.46;26.21;17.73;0.87
66018;SPS30;52787;51.084;5.816;2023-11-19T07:35:31;10.53;9.24;6.73;3.50;28.14;28.04;27.48;24.38;16.35;0.88
66018;SPS30;52787;51.084;5.816;2023-11-19T07:37:57;11.43;10.02;7.29;3.77;30.31;30.20;29.59;26.21;17.50;0.88
66018;SPS30;52787;51.084;5.816;2023-11-19T07:40:24;11.55;10.12;7.33;3.76;30.25;30.14;29.52;26.08;17.29;0.89
66018;SPS30;52787;51.084;5.816;2023-11-19T07:42:50;9.92;8.71;6.32;3.27;26.29;26.19;25.66;22.72;15.16;0.89
66018;SPS30;52787;51.084;5.816;2023-11-19T07:45:16;12.00;10.56;7.75;4.13;33.23;33.11;32.49;29.02;19.84;0.88
66018;SPS30;52787;51.084;5.816;2023-11-19T07:47:43;11.86;10.39;7.54;3.87;31.18;31.06;30.43;26.90;17.87;0.91
66018;SPS30;52787;51.084;5.816;2023-11-19T07:50:12;12.02;10.53;7.62;3.89;31.30;31.18;30.53;26.94;17.79;0.91
66018;SPS30;52787;51.084;5.816;2023-11-19T07:52:42;12.01;10.50;7.56;3.80;30.57;30.45;29.80;26.17;17.03;0.92
66018;SPS30;52787;51.084;5.816;2023-11-19T07:55:08;11.83;10.33;7.38;3.62;29.19;29.07;28.42;24.78;15.80;0.92
66018;SPS30;52787;51.084;5.816;2023-11-19T07:57:34;11.00;9.61;6.90;3.44;27.73;27.62;27.02;23.68;15.31;0.91
66018;SPS30;52787;51.084;5.816;2023-11-19T07:59:59;12.82;11.23;8.12;4.13;33.24;33.11;32.42;28.58;18.82;0.88
66018;SPS30;52787;51.084;5.816;2023-11-19T08:02:26;12.35;11.01;8.40;4.96;39.83;39.72;39.14;35.90;26.38;0.79
66018;SPS30;52787;51.084;5.816;2023-11-19T08:04:53;11.79;10.63;8.36;5.31;42.63;42.54;42.03;39.20;30.05;0.77
66018;SPS30;52787;51.084;5.816;2023-11-19T08:07:20;10.61;9.52;7.37;4.53;36.35;36.26;35.78;33.11;24.90;0.79
66018;SPS30;52787;51.084;5.816;2023-11-19T08:09:47;11.97;10.66;8.10;4.75;38.13;38.02;37.45;34.28;25.06;0.81
66018;SPS30;52787;51.084;5.816;2023-11-19T08:12:13;11.53;10.28;7.83;4.62;37.07;36.97;36.43;33.39;24.51;0.82
66018;SPS30;52787;51.084;5.816;2023-11-19T08:14:40;10.82;9.72;7.57;4.70;37.75;37.66;37.18;34.51;26.12;0.77
66018;SPS30;52787;51.084;5.816;2023-11-19T08:17:09;10.95;9.76;7.45;4.41;35.42;35.32;34.81;31.94;23.50;0.79
66018;SPS30;52787;51.084;5.816;2023-11-19T08:19:35;12.13;10.74;8.02;4.48;36.03;35.92;35.32;31.95;22.65;0.83
66018;SPS30;52787;51.084;5.816;2023-11-19T08:22:00;10.17;8.96;6.60;3.55;28.55;28.45;27.93;25.01;17.23;0.87
66018;SPS30;52787;51.084;5.816;2023-11-19T08:24:27;12.48;10.97;8.04;4.25;34.20;34.08;33.43;29.80;20.28;0.88
66018;SPS30;52787;51.084;5.816;2023-11-19T08:26:53;11.32;10.00;7.41;4.06;32.63;32.52;31.95;28.75;20.08;0.85
66018;SPS30;52787;51.084;5.816;2023-11-19T08:29:19;11.15;9.83;7.25;3.91;31.48;31.37;30.80;27.61;19.09;0.85
66018;SPS30;52787;51.084;5.816;2023-11-19T08:31:46;12.30;10.79;7.84;4.05;32.59;32.47;31.81;28.17;18.80;0.89
66018;SPS30;52787;51.084;5.816;2023-11-19T08:34:12;13.88;12.15;8.78;4.46;35.91;35.77;35.02;30.86;20.30;0.90
66018;SPS30;52787;51.084;5.816;2023-11-19T08:36:38;12.76;11.18;8.09;4.12;33.20;33.07;32.39;28.57;18.86;0.90
66018;SPS30;52787;51.084;5.816;2023-11-19T08:39:04;12.86;11.28;8.20;4.24;34.16;34.03;33.35;29.55;19.74;0.92
66018;SPS30;52787;51.084;5.816;2023-11-19T08:41:29;13.16;11.56;8.43;4.41;35.48;35.35;34.66;30.79;20.75;0.90
66018;SPS30;52787;51.084;5.816;2023-11-19T08:43:55;13.54;11.91;8.72;4.61;37.06;36.93;36.22;32.28;21.95;0.88
66018;SPS30;52787;51.084;5.816;2023-11-19T08:46:21;13.65;11.95;8.63;4.37;35.19;35.06;34.32;30.22;19.83;0.91
66018;SPS30;52787;51.084;5.816;2023-11-19T08:48:47;13.52;11.83;8.53;4.32;34.75;34.61;33.88;29.81;19.53;0.92
66018;SPS30;52787;51.084;5.816;2023-11-19T08:51:13;13.45;11.82;8.65;4.56;36.65;36.52;35.82;31.89;21.63;0.90
66018;SPS30;52787;51.084;5.816;2023-11-19T08:53:39;13.82;12.16;8.91;4.72;37.98;37.85;37.13;33.11;22.56;0.89
66018;SPS30;52787;51.084;5.816;2023-11-19T08:56:04;11.85;10.44;7.71;4.17;33.51;33.39;32.78;29.40;20.34;0.86
66018;SPS30;52787;51.084;5.816;2023-11-19T08:58:31;12.10;10.61;7.69;3.96;31.84;31.72;31.07;27.48;18.26;0.91
66018;SPS30;52787;51.084;5.816;2023-11-19T09:00:57;13.60;11.95;8.73;4.58;36.87;36.74;36.02;32.04;21.66;0.90
66018;SPS30;52787;51.084;5.816;2023-11-19T09:03:23;14.57;12.78;9.28;4.79;38.57;38.42;37.65;33.33;22.22;0.90
66018;SPS30;52787;51.084;5.816;2023-11-19T09:05:51;12.77;11.23;8.22;4.33;34.87;34.75;34.08;30.36;20.60;0.87
66018;SPS30;52787;51.084;5.816;2023-11-19T09:08:19;12.15;10.66;7.73;3.97;31.99;31.87;31.22;27.61;18.35;0.88
66018;SPS30;52787;51.084;5.816;2023-11-19T09:10:45;13.43;11.76;8.49;4.30;34.63;34.49;33.77;29.74;19.52;0.90
66018;SPS30;52787;51.084;5.816;2023-11-19T09:13:11;16.08;14.31;10.86;6.33;50.86;50.72;49.95;45.66;33.28;0.81